sensor_id;sensor_type;location;lat;lon;timestamp;P1;durP1;ratioP1;P2;durP2;ratioP2
37459;SDS011;23318;50.966;5.284;2023-07-30T00:01:48;6.63;;;2.00;;
37459;SDS011;23318;50.966;5.284;2023-07-30T00:04:14;10.77;;;2.90;;
37459;SDS011;23318;50.966;5.284;2023-07-30T00:06:40;6.85;;;1.83;;
37459;SDS011;23318;50.966;5.284;2023-07-30T00:09:05;8.93;;;2.35;;
37459;SDS011;23318;50.966;5.284;2023-07-30T00:11:31;6.40;;;2.28;;
37459;SDS011;23318;50.966;5.284;2023-07-30T00:13:57;7.78;;;2.50;;
37459;SDS011;23318;50.966;5.284;2023-07-30T00:16:24;7.38;;;2.55;;
37459;SDS011;23318;50.966;5.284;2023-07-30T00:18:51;7.78;;;2.05;;
37459;SDS011;23318;50.966;5.284;2023-07-30T00:21:16;6.78;;;2.55;;
37459;SDS011;23318;50.966;5.284;2023-07-30T00:23:42;8.25;;;2.42;;
37459;SDS011;23318;50.966;5.284;2023-07-30T00:26:07;5.28;;;1.75;;
37459;SDS011;23318;50.966;5.284;2023-07-30T00:28:33;7.55;;;2.30;;
37459;SDS011;23318;50.966;5.284;2023-07-30T00:30:59;7.05;;;2.20;;
37459;SDS011;23318;50.966;5.284;2023-07-30T00:33:24;9.07;;;2.20;;
37459;SDS011;23318;50.966;5.284;2023-07-30T00:35:51;13.48;;;2.60;;
37459;SDS011;23318;50.966;5.284;2023-07-30T00:38:17;7.13;;;2.03;;
37459;SDS011;23318;50.966;5.284;2023-07-30T00:40:43;6.47;;;2.20;;
37459;SDS011;23318;50.966;5.284;2023-07-30T00:43:09;10.52;;;2.35;;
37459;SDS011;23318;50.966;5.284;2023-07-30T00:45:36;3.20;;;1.67;;
37459;SDS011;23318;50.966;5.284;2023-07-30T00:48:05;10.55;;;2.35;;
37459;SDS011;23318;50.966;5.284;2023-07-30T00:50:31;5.50;;;2.40;;
37459;SDS011;23318;50.966;5.284;2023-07-30T00:52:57;8.07;;;2.42;;
37459;SDS011;23318;50.966;5.284;2023-07-30T00:55:23;11.90;;;3.13;;
37459;SDS011;23318;50.966;5.284;2023-07-30T00:57:49;6.13;;;2.40;;
37459;SDS011;23318;50.966;5.284;2023-07-30T01:00:16;5.70;;;2.53;;
37459;SDS011;23318;50.966;5.284;2023-07-30T01:02:42;11.48;;;2.72;;
37459;SDS011;23318;50.966;5.284;2023-07-30T01:05:08;9.95;;;2.92;;
37459;SDS011;23318;50.966;5.284;2023-07-30T01:07:34;10.07;;;2.38;;
37459;SDS011;23318;50.966;5.284;2023-07-30T01:10:00;5.47;;;2.08;;
37459;SDS011;23318;50.966;5.284;2023-07-30T01:12:26;9.30;;;2.25;;
37459;SDS011;23318;50.966;5.284;2023-07-30T01:14:56;8.50;;;2.50;;
37459;SDS011;23318;50.966;5.284;2023-07-30T01:17:22;9.30;;;2.35;;
37459;SDS011;23318;50.966;5.284;2023-07-30T01:19:48;7.68;;;2.65;;
37459;SDS011;23318;50.966;5.284;2023-07-30T01:22:19;14.23;;;3.60;;
37459;SDS011;23318;50.966;5.284;2023-07-30T01:24:45;9.75;;;2.72;;
37459;SDS011;23318;50.966;5.284;2023-07-30T01:27:13;9.63;;;1.80;;
37459;SDS011;23318;50.966;5.284;2023-07-30T01:32:16;9.70;;;3.08;;
37459;SDS011;23318;50.966;5.284;2023-07-30T01:34:48;8.90;;;2.40;;
37459;SDS011;23318;50.966;5.284;2023-07-30T01:37:16;8.57;;;2.50;;
37459;SDS011;23318;50.966;5.284;2023-07-30T01:39:42;10.30;;;2.42;;
37459;SDS011;23318;50.966;5.284;2023-07-30T01:42:11;7.05;;;2.42;;
37459;SDS011;23318;50.966;5.284;2023-07-30T01:44:37;9.90;;;2.50;;
37459;SDS011;23318;50.966;5.284;2023-07-30T01:47:03;9.90;;;2.85;;
37459;SDS011;23318;50.966;5.284;2023-07-30T01:49:29;13.13;;;3.35;;
37459;SDS011;23318;50.966;5.284;2023-07-30T01:51:54;12.90;;;2.65;;
37459;SDS011;23318;50.966;5.284;2023-07-30T01:54:20;6.82;;;2.75;;
37459;SDS011;23318;50.966;5.284;2023-07-30T01:56:46;10.30;;;2.50;;
37459;SDS011;23318;50.966;5.284;2023-07-30T01:59:11;6.63;;;2.72;;
37459;SDS011;23318;50.966;5.284;2023-07-30T02:01:37;13.43;;;2.10;;
37459;SDS011;23318;50.966;5.284;2023-07-30T02:04:03;9.20;;;2.55;;
37459;SDS011;23318;50.966;5.284;2023-07-30T02:06:29;13.30;;;2.90;;
37459;SDS011;23318;50.966;5.284;2023-07-30T02:08:54;22.20;;;3.47;;
37459;SDS011;23318;50.966;5.284;2023-07-30T02:11:20;11.02;;;2.60;;
37459;SDS011;23318;50.966;5.284;2023-07-30T02:13:45;14.98;;;3.03;;
37459;SDS011;23318;50.966;5.284;2023-07-30T02:16:11;9.68;;;3.20;;
37459;SDS011;23318;50.966;5.284;2023-07-30T02:18:37;10.05;;;2.60;;
37459;SDS011;23318;50.966;5.284;2023-07-30T02:21:02;8.85;;;2.08;;
37459;SDS011;23318;50.966;5.284;2023-07-30T02:23:28;7.35;;;2.50;;
37459;SDS011;23318;50.966;5.284;2023-07-30T02:25:54;8.25;;;2.10;;
37459;SDS011;23318;50.966;5.284;2023-07-30T02:28:20;8.85;;;2.63;;
37459;SDS011;23318;50.966;5.284;2023-07-30T02:30:46;16.65;;;3.33;;
37459;SDS011;23318;50.966;5.284;2023-07-30T02:33:11;10.95;;;2.72;;
37459;SDS011;23318;50.966;5.284;2023-07-30T02:35:37;12.02;;;2.63;;
37459;SDS011;23318;50.966;5.284;2023-07-30T02:38:02;10.50;;;2.28;;
37459;SDS011;23318;50.966;5.284;2023-07-30T02:40:28;9.10;;;2.10;;
37459;SDS011;23318;50.966;5.284;2023-07-30T02:42:54;10.90;;;2.65;;
37459;SDS011;23318;50.966;5.284;2023-07-30T02:45:19;8.25;;;2.40;;
37459;SDS011;23318;50.966;5.284;2023-07-30T02:47:45;9.73;;;2.60;;
37459;SDS011;23318;50.966;5.284;2023-07-30T02:50:11;12.82;;;2.58;;
37459;SDS011;23318;50.966;5.284;2023-07-30T02:52:36;10.32;;;2.58;;
37459;SDS011;23318;50.966;5.284;2023-07-30T02:55:02;9.85;;;2.72;;
37459;SDS011;23318;50.966;5.284;2023-07-30T02:57:28;6.82;;;2.45;;
37459;SDS011;23318;50.966;5.284;2023-07-30T02:59:53;12.48;;;2.35;;
37459;SDS011;23318;50.966;5.284;2023-07-30T03:02:19;11.20;;;2.70;;
37459;SDS011;23318;50.966;5.284;2023-07-30T03:04:45;9.13;;;2.53;;
37459;SDS011;23318;50.966;5.284;2023-07-30T03:07:10;11.68;;;2.13;;
37459;SDS011;23318;50.966;5.284;2023-07-30T03:09:36;10.95;;;2.38;;
37459;SDS011;23318;50.966;5.284;2023-07-30T03:12:01;11.15;;;2.20;;
37459;SDS011;23318;50.966;5.284;2023-07-30T03:14:29;15.63;;;2.50;;
37459;SDS011;23318;50.966;5.284;2023-07-30T03:16:54;10.95;;;2.60;;
37459;SDS011;23318;50.966;5.284;2023-07-30T03:19:20;12.57;;;2.40;;
37459;SDS011;23318;50.966;5.284;2023-07-30T03:21:45;8.48;;;2.15;;
37459;SDS011;23318;50.966;5.284;2023-07-30T03:24:11;10.88;;;1.83;;
37459;SDS011;23318;50.966;5.284;2023-07-30T03:26:37;14.13;;;2.78;;
37459;SDS011;23318;50.966;5.284;2023-07-30T03:29:02;10.73;;;1.98;;
37459;SDS011;23318;50.966;5.284;2023-07-30T03:31:28;13.48;;;2.55;;
37459;SDS011;23318;50.966;5.284;2023-07-30T03:33:54;12.40;;;2.40;;
37459;SDS011;23318;50.966;5.284;2023-07-30T03:36:19;8.35;;;1.98;;
37459;SDS011;23318;50.966;5.284;2023-07-30T03:38:45;9.10;;;2.65;;
37459;SDS011;23318;50.966;5.284;2023-07-30T03:41:11;10.90;;;2.15;;
37459;SDS011;23318;50.966;5.284;2023-07-30T03:43:36;8.13;;;1.92;;
37459;SDS011;23318;50.966;5.284;2023-07-30T03:46:02;7.40;;;2.08;;
37459;SDS011;23318;50.966;5.284;2023-07-30T03:48:28;9.48;;;1.92;;
37459;SDS011;23318;50.966;5.284;2023-07-30T03:50:54;10.70;;;1.50;;
37459;SDS011;23318;50.966;5.284;2023-07-30T03:53:20;6.53;;;1.40;;
37459;SDS011;23318;50.966;5.284;2023-07-30T03:55:46;9.45;;;1.90;;
37459;SDS011;23318;50.966;5.284;2023-07-30T03:58:12;13.50;;;2.70;;
37459;SDS011;23318;50.966;5.284;2023-07-30T04:00:38;6.47;;;1.77;;
37459;SDS011;23318;50.966;5.284;2023-07-30T04:03:04;9.13;;;1.50;;
37459;SDS011;23318;50.966;5.284;2023-07-30T04:05:30;11.05;;;1.73;;
37459;SDS011;23318;50.966;5.284;2023-07-30T04:07:56;11.30;;;1.90;;
37459;SDS011;23318;50.966;5.284;2023-07-30T04:10:22;7.32;;;1.40;;
37459;SDS011;23318;50.966;5.284;2023-07-30T04:12:47;5.57;;;1.35;;
37459;SDS011;23318;50.966;5.284;2023-07-30T04:15:14;5.78;;;1.92;;
37459;SDS011;23318;50.966;5.284;2023-07-30T04:17:40;5.05;;;1.55;;
37459;SDS011;23318;50.966;5.284;2023-07-30T04:20:07;11.18;;;1.45;;
37459;SDS011;23318;50.966;5.284;2023-07-30T04:22:34;6.05;;;1.45;;
37459;SDS011;23318;50.966;5.284;2023-07-30T04:25:01;6.30;;;1.65;;
37459;SDS011;23318;50.966;5.284;2023-07-30T04:27:26;4.60;;;1.17;;
37459;SDS011;23318;50.966;5.284;2023-07-30T04:29:52;4.68;;;1.50;;
37459;SDS011;23318;50.966;5.284;2023-07-30T04:32:18;7.47;;;1.70;;
37459;SDS011;23318;50.966;5.284;2023-07-30T04:34:43;10.35;;;1.90;;
37459;SDS011;23318;50.966;5.284;2023-07-30T04:37:09;13.27;;;1.92;;
37459;SDS011;23318;50.966;5.284;2023-07-30T04:39:35;2.65;;;1.25;;
37459;SDS011;23318;50.966;5.284;2023-07-30T04:42:01;4.47;;;1.20;;
37459;SDS011;23318;50.966;5.284;2023-07-30T04:44:30;13.35;;;1.63;;
37459;SDS011;23318;50.966;5.284;2023-07-30T04:46:55;11.45;;;1.70;;
37459;SDS011;23318;50.966;5.284;2023-07-30T04:49:21;13.20;;;1.90;;
37459;SDS011;23318;50.966;5.284;2023-07-30T04:51:46;9.10;;;1.40;;
37459;SDS011;23318;50.966;5.284;2023-07-30T04:54:12;8.55;;;1.88;;
37459;SDS011;23318;50.966;5.284;2023-07-30T04:56:38;7.68;;;1.90;;
37459;SDS011;23318;50.966;5.284;2023-07-30T04:59:03;8.18;;;1.90;;
37459;SDS011;23318;50.966;5.284;2023-07-30T05:01:29;6.93;;;1.83;;
37459;SDS011;23318;50.966;5.284;2023-07-30T05:03:56;8.50;;;1.77;;
37459;SDS011;23318;50.966;5.284;2023-07-30T05:06:22;9.70;;;2.05;;
37459;SDS011;23318;50.966;5.284;2023-07-30T05:08:48;7.05;;;1.75;;
37459;SDS011;23318;50.966;5.284;2023-07-30T05:11:14;4.97;;;1.60;;
37459;SDS011;23318;50.966;5.284;2023-07-30T05:13:39;9.38;;;1.60;;
37459;SDS011;23318;50.966;5.284;2023-07-30T05:16:05;10.05;;;1.63;;
37459;SDS011;23318;50.966;5.284;2023-07-30T05:18:31;11.75;;;2.05;;
37459;SDS011;23318;50.966;5.284;2023-07-30T05:20:57;16.10;;;2.38;;
37459;SDS011;23318;50.966;5.284;2023-07-30T05:23:23;10.73;;;1.75;;
37459;SDS011;23318;50.966;5.284;2023-07-30T05:25:48;11.82;;;2.38;;
37459;SDS011;23318;50.966;5.284;2023-07-30T05:28:14;10.45;;;2.20;;
37459;SDS011;23318;50.966;5.284;2023-07-30T05:30:40;9.35;;;2.15;;
37459;SDS011;23318;50.966;5.284;2023-07-30T05:33:05;10.13;;;2.08;;
37459;SDS011;23318;50.966;5.284;2023-07-30T05:35:31;6.65;;;2.03;;
37459;SDS011;23318;50.966;5.284;2023-07-30T05:37:56;8.90;;;2.40;;
37459;SDS011;23318;50.966;5.284;2023-07-30T05:40:22;15.40;;;2.08;;
37459;SDS011;23318;50.966;5.284;2023-07-30T05:42:48;6.78;;;2.20;;
37459;SDS011;23318;50.966;5.284;2023-07-30T05:45:13;8.57;;;2.20;;
37459;SDS011;23318;50.966;5.284;2023-07-30T05:47:39;10.45;;;2.60;;
37459;SDS011;23318;50.966;5.284;2023-07-30T05:50:06;9.20;;;2.25;;
37459;SDS011;23318;50.966;5.284;2023-07-30T05:52:32;13.02;;;2.42;;
37459;SDS011;23318;50.966;5.284;2023-07-30T05:54:58;11.35;;;2.03;;
37459;SDS011;23318;50.966;5.284;2023-07-30T05:57:24;18.05;;;2.08;;
37459;SDS011;23318;50.966;5.284;2023-07-30T05:59:50;10.75;;;2.28;;
37459;SDS011;23318;50.966;5.284;2023-07-30T06:02:16;9.70;;;2.40;;
37459;SDS011;23318;50.966;5.284;2023-07-30T06:04:41;11.95;;;2.33;;
37459;SDS011;23318;50.966;5.284;2023-07-30T06:07:07;9.35;;;2.10;;
37459;SDS011;23318;50.966;5.284;2023-07-30T06:09:33;16.75;;;2.30;;
37459;SDS011;23318;50.966;5.284;2023-07-30T06:11:58;10.27;;;1.98;;
37459;SDS011;23318;50.966;5.284;2023-07-30T06:14:24;12.75;;;2.42;;
37459;SDS011;23318;50.966;5.284;2023-07-30T06:16:50;8.88;;;2.08;;
37459;SDS011;23318;50.966;5.284;2023-07-30T06:19:17;12.43;;;2.15;;
37459;SDS011;23318;50.966;5.284;2023-07-30T06:21:42;11.15;;;2.53;;
37459;SDS011;23318;50.966;5.284;2023-07-30T06:24:08;10.23;;;2.97;;
37459;SDS011;23318;50.966;5.284;2023-07-30T06:26:34;10.38;;;1.55;;
37459;SDS011;23318;50.966;5.284;2023-07-30T06:28:59;12.50;;;2.20;;
37459;SDS011;23318;50.966;5.284;2023-07-30T06:31:25;9.02;;;2.00;;
37459;SDS011;23318;50.966;5.284;2023-07-30T06:33:51;16.33;;;2.33;;
37459;SDS011;23318;50.966;5.284;2023-07-30T06:36:16;10.88;;;2.03;;
37459;SDS011;23318;50.966;5.284;2023-07-30T06:38:42;7.22;;;2.08;;
37459;SDS011;23318;50.966;5.284;2023-07-30T06:41:08;15.70;;;1.98;;
37459;SDS011;23318;50.966;5.284;2023-07-30T06:43:33;14.15;;;2.50;;
37459;SDS011;23318;50.966;5.284;2023-07-30T06:45:59;13.77;;;2.20;;
37459;SDS011;23318;50.966;5.284;2023-07-30T06:48:25;10.55;;;2.53;;
37459;SDS011;23318;50.966;5.284;2023-07-30T06:50:50;12.38;;;1.92;;
37459;SDS011;23318;50.966;5.284;2023-07-30T06:53:16;15.50;;;3.40;;
37459;SDS011;23318;50.966;5.284;2023-07-30T06:55:42;11.02;;;2.60;;
37459;SDS011;23318;50.966;5.284;2023-07-30T06:58:08;16.85;;;2.63;;
37459;SDS011;23318;50.966;5.284;2023-07-30T07:00:34;15.93;;;2.45;;
37459;SDS011;23318;50.966;5.284;2023-07-30T07:02:59;15.13;;;2.67;;
37459;SDS011;23318;50.966;5.284;2023-07-30T07:05:25;14.20;;;2.58;;
37459;SDS011;23318;50.966;5.284;2023-07-30T07:07:51;9.93;;;2.75;;
37459;SDS011;23318;50.966;5.284;2023-07-30T07:10:16;10.73;;;3.03;;
37459;SDS011;23318;50.966;5.284;2023-07-30T07:12:42;11.60;;;2.90;;
37459;SDS011;23318;50.966;5.284;2023-07-30T07:15:08;16.77;;;2.80;;
37459;SDS011;23318;50.966;5.284;2023-07-30T07:17:33;12.23;;;2.92;;
37459;SDS011;23318;50.966;5.284;2023-07-30T07:20:00;18.20;;;2.92;;
37459;SDS011;23318;50.966;5.284;2023-07-30T07:22:26;14.55;;;2.70;;
37459;SDS011;23318;50.966;5.284;2023-07-30T07:24:52;15.18;;;3.38;;
37459;SDS011;23318;50.966;5.284;2023-07-30T07:27:18;14.80;;;3.00;;
37459;SDS011;23318;50.966;5.284;2023-07-30T07:29:44;14.15;;;3.65;;
37459;SDS011;23318;50.966;5.284;2023-07-30T07:32:09;10.52;;;2.65;;
37459;SDS011;23318;50.966;5.284;2023-07-30T07:34:35;12.63;;;2.22;;
37459;SDS011;23318;50.966;5.284;2023-07-30T07:37:01;15.40;;;3.10;;
37459;SDS011;23318;50.966;5.284;2023-07-30T07:39:27;14.00;;;2.75;;
37459;SDS011;23318;50.966;5.284;2023-07-30T07:41:53;10.00;;;2.45;;
37459;SDS011;23318;50.966;5.284;2023-07-30T07:44:19;19.83;;;3.60;;
37459;SDS011;23318;50.966;5.284;2023-07-30T07:46:45;14.65;;;3.25;;
37459;SDS011;23318;50.966;5.284;2023-07-30T07:49:10;17.50;;;3.22;;
37459;SDS011;23318;50.966;5.284;2023-07-30T07:51:36;16.98;;;3.10;;
37459;SDS011;23318;50.966;5.284;2023-07-30T07:54:01;15.20;;;2.90;;
37459;SDS011;23318;50.966;5.284;2023-07-30T07:56:27;14.30;;;2.83;;
37459;SDS011;23318;50.966;5.284;2023-07-30T07:58:54;16.63;;;3.28;;
37459;SDS011;23318;50.966;5.284;2023-07-30T08:01:20;15.65;;;3.05;;
37459;SDS011;23318;50.966;5.284;2023-07-30T08:03:45;14.38;;;3.22;;
37459;SDS011;23318;50.966;5.284;2023-07-30T08:06:11;16.67;;;2.75;;
37459;SDS011;23318;50.966;5.284;2023-07-30T08:08:37;16.52;;;2.53;;
37459;SDS011;23318;50.966;5.284;2023-07-30T08:11:05;12.27;;;2.83;;
37459;SDS011;23318;50.966;5.284;2023-07-30T08:13:32;15.48;;;3.20;;
37459;SDS011;23318;50.966;5.284;2023-07-30T08:15:58;14.35;;;2.50;;
37459;SDS011;23318;50.966;5.284;2023-07-30T08:18:24;15.75;;;3.05;;
37459;SDS011;23318;50.966;5.284;2023-07-30T08:20:50;19.30;;;4.03;;
37459;SDS011;23318;50.966;5.284;2023-07-30T08:23:15;16.92;;;2.88;;
37459;SDS011;23318;50.966;5.284;2023-07-30T08:25:41;15.95;;;2.63;;
37459;SDS011;23318;50.966;5.284;2023-07-30T08:28:07;16.35;;;2.60;;
37459;SDS011;23318;50.966;5.284;2023-07-30T08:30:32;15.93;;;3.28;;
37459;SDS011;23318;50.966;5.284;2023-07-30T08:32:58;20.23;;;3.72;;
37459;SDS011;23318;50.966;5.284;2023-07-30T08:35:24;18.10;;;2.88;;
37459;SDS011;23318;50.966;5.284;2023-07-30T08:37:51;15.30;;;2.90;;
37459;SDS011;23318;50.966;5.284;2023-07-30T08:40:17;11.45;;;3.00;;
37459;SDS011;23318;50.966;5.284;2023-07-30T08:42:43;10.95;;;2.78;;
37459;SDS011;23318;50.966;5.284;2023-07-30T08:45:09;14.68;;;2.80;;
37459;SDS011;23318;50.966;5.284;2023-07-30T08:47:35;14.32;;;2.53;;
37459;SDS011;23318;50.966;5.284;2023-07-30T08:50:01;15.30;;;3.08;;
37459;SDS011;23318;50.966;5.284;2023-07-30T08:52:27;9.00;;;2.83;;
37459;SDS011;23318;50.966;5.284;2023-07-30T08:54:55;13.27;;;2.90;;
37459;SDS011;23318;50.966;5.284;2023-07-30T08:57:23;12.48;;;2.38;;
37459;SDS011;23318;50.966;5.284;2023-07-30T08:59:52;13.30;;;2.53;;
37459;SDS011;23318;50.966;5.284;2023-07-30T09:02:33;8.98;;;2.08;;
37459;SDS011;23318;50.966;5.284;2023-07-30T09:05:04;11.27;;;2.20;;
37459;SDS011;23318;50.966;5.284;2023-07-30T09:07:31;7.00;;;1.92;;
37459;SDS011;23318;50.966;5.284;2023-07-30T09:09:56;8.02;;;1.98;;
37459;SDS011;23318;50.966;5.284;2023-07-30T09:12:26;8.60;;;1.92;;
37459;SDS011;23318;50.966;5.284;2023-07-30T09:14:55;7.10;;;1.67;;
37459;SDS011;23318;50.966;5.284;2023-07-30T09:17:21;12.15;;;2.58;;
37459;SDS011;23318;50.966;5.284;2023-07-30T09:19:47;12.35;;;2.25;;
37459;SDS011;23318;50.966;5.284;2023-07-30T09:22:13;5.93;;;1.65;;
37459;SDS011;23318;50.966;5.284;2023-07-30T09:24:44;10.35;;;2.00;;
37459;SDS011;23318;50.966;5.284;2023-07-30T09:27:10;11.73;;;2.15;;
37459;SDS011;23318;50.966;5.284;2023-07-30T09:29:36;16.15;;;1.83;;
37459;SDS011;23318;50.966;5.284;2023-07-30T09:32:01;13.18;;;2.75;;
37459;SDS011;23318;50.966;5.284;2023-07-30T09:34:27;10.00;;;1.90;;
37459;SDS011;23318;50.966;5.284;2023-07-30T09:36:55;9.48;;;1.60;;
37459;SDS011;23318;50.966;5.284;2023-07-30T09:41:47;6.55;;;1.95;;
37459;SDS011;23318;50.966;5.284;2023-07-30T09:44:15;8.45;;;1.73;;
37459;SDS011;23318;50.966;5.284;2023-07-30T09:46:46;9.10;;;1.67;;
37459;SDS011;23318;50.966;5.284;2023-07-30T09:49:14;6.93;;;1.60;;
37459;SDS011;23318;50.966;5.284;2023-07-30T09:51:40;11.60;;;1.77;;
37459;SDS011;23318;50.966;5.284;2023-07-30T09:54:07;10.13;;;1.85;;
37459;SDS011;23318;50.966;5.284;2023-07-30T09:56:34;9.70;;;1.55;;
37459;SDS011;23318;50.966;5.284;2023-07-30T09:59:01;7.82;;;2.30;;
37459;SDS011;23318;50.966;5.284;2023-07-30T10:01:27;10.23;;;2.13;;
37459;SDS011;23318;50.966;5.284;2023-07-30T10:03:56;13.10;;;2.42;;
37459;SDS011;23318;50.966;5.284;2023-07-30T10:06:23;8.73;;;1.70;;
37459;SDS011;23318;50.966;5.284;2023-07-30T10:08:52;10.05;;;1.65;;
37459;SDS011;23318;50.966;5.284;2023-07-30T10:11:20;8.32;;;1.33;;
37459;SDS011;23318;50.966;5.284;2023-07-30T10:13:46;7.10;;;1.30;;
37459;SDS011;23318;50.966;5.284;2023-07-30T10:16:12;2.88;;;0.93;;
37459;SDS011;23318;50.966;5.284;2023-07-30T10:18:41;4.68;;;1.10;;
37459;SDS011;23318;50.966;5.284;2023-07-30T10:21:08;5.30;;;1.05;;
37459;SDS011;23318;50.966;5.284;2023-07-30T10:23:35;5.32;;;1.10;;
37459;SDS011;23318;50.966;5.284;2023-07-30T10:26:09;6.10;;;1.17;;
37459;SDS011;23318;50.966;5.284;2023-07-30T10:28:35;4.15;;;1.48;;
37459;SDS011;23318;50.966;5.284;2023-07-30T10:31:07;9.68;;;1.42;;
37459;SDS011;23318;50.966;5.284;2023-07-30T10:33:52;6.68;;;1.40;;
37459;SDS011;23318;50.966;5.284;2023-07-30T10:36:26;6.32;;;1.58;;
37459;SDS011;23318;50.966;5.284;2023-07-30T10:39:16;11.25;;;2.10;;
37459;SDS011;23318;50.966;5.284;2023-07-30T10:41:50;4.55;;;1.48;;
37459;SDS011;23318;50.966;5.284;2023-07-30T10:44:21;6.85;;;1.58;;
37459;SDS011;23318;50.966;5.284;2023-07-30T10:46:56;7.70;;;1.95;;
37459;SDS011;23318;50.966;5.284;2023-07-30T10:49:23;7.03;;;1.17;;
37459;SDS011;23318;50.966;5.284;2023-07-30T10:51:51;8.25;;;2.00;;
37459;SDS011;23318;50.966;5.284;2023-07-30T10:54:20;8.65;;;1.73;;
37459;SDS011;23318;50.966;5.284;2023-07-30T10:56:47;8.88;;;1.95;;
37459;SDS011;23318;50.966;5.284;2023-07-30T10:59:13;5.13;;;1.60;;
37459;SDS011;23318;50.966;5.284;2023-07-30T11:01:41;6.53;;;1.52;;
37459;SDS011;23318;50.966;5.284;2023-07-30T11:06:47;7.63;;;1.95;;
37459;SDS011;23318;50.966;5.284;2023-07-30T11:09:21;9.40;;;2.20;;
37459;SDS011;23318;50.966;5.284;2023-07-30T11:11:49;9.75;;;1.92;;
37459;SDS011;23318;50.966;5.284;2023-07-30T11:14:16;10.85;;;1.98;;
37459;SDS011;23318;50.966;5.284;2023-07-30T11:16:54;10.75;;;1.95;;
37459;SDS011;23318;50.966;5.284;2023-07-30T11:19:24;11.18;;;2.42;;
37459;SDS011;23318;50.966;5.284;2023-07-30T11:21:55;5.95;;;1.70;;
37459;SDS011;23318;50.966;5.284;2023-07-30T11:24:22;7.82;;;1.75;;
37459;SDS011;23318;50.966;5.284;2023-07-30T11:26:58;7.22;;;1.80;;
37459;SDS011;23318;50.966;5.284;2023-07-30T11:29:24;12.55;;;1.40;;
37459;SDS011;23318;50.966;5.284;2023-07-30T11:31:50;9.38;;;2.15;;
37459;SDS011;23318;50.966;5.284;2023-07-30T11:34:16;7.10;;;2.00;;
37459;SDS011;23318;50.966;5.284;2023-07-30T11:36:43;9.80;;;1.83;;
37459;SDS011;23318;50.966;5.284;2023-07-30T11:39:10;6.80;;;1.73;;
37459;SDS011;23318;50.966;5.284;2023-07-30T11:41:36;7.55;;;1.88;;
37459;SDS011;23318;50.966;5.284;2023-07-30T11:44:02;7.55;;;2.15;;
37459;SDS011;23318;50.966;5.284;2023-07-30T11:46:29;10.02;;;2.08;;
37459;SDS011;23318;50.966;5.284;2023-07-30T11:49:10;5.30;;;1.40;;
37459;SDS011;23318;50.966;5.284;2023-07-30T11:51:42;7.80;;;1.83;;
37459;SDS011;23318;50.966;5.284;2023-07-30T11:54:07;6.30;;;1.48;;
37459;SDS011;23318;50.966;5.284;2023-07-30T11:56:42;8.35;;;1.75;;
37459;SDS011;23318;50.966;5.284;2023-07-30T11:59:08;11.52;;;1.80;;
37459;SDS011;23318;50.966;5.284;2023-07-30T12:01:35;6.53;;;1.55;;
37459;SDS011;23318;50.966;5.284;2023-07-30T12:04:02;4.78;;;1.25;;
37459;SDS011;23318;50.966;5.284;2023-07-30T12:06:41;10.90;;;1.83;;
37459;SDS011;23318;50.966;5.284;2023-07-30T12:09:16;6.40;;;1.80;;
37459;SDS011;23318;50.966;5.284;2023-07-30T12:14:19;5.10;;;1.52;;
37459;SDS011;23318;50.966;5.284;2023-07-30T12:16:50;4.70;;;1.42;;
37459;SDS011;23318;50.966;5.284;2023-07-30T12:19:16;6.28;;;1.60;;
37459;SDS011;23318;50.966;5.284;2023-07-30T12:21:41;6.43;;;1.55;;
37459;SDS011;23318;50.966;5.284;2023-07-30T12:24:07;8.48;;;2.00;;
37459;SDS011;23318;50.966;5.284;2023-07-30T12:26:33;8.13;;;1.90;;
37459;SDS011;23318;50.966;5.284;2023-07-30T12:28:58;9.85;;;2.72;;
37459;SDS011;23318;50.966;5.284;2023-07-30T12:31:24;12.55;;;1.80;;
37459;SDS011;23318;50.966;5.284;2023-07-30T12:33:50;7.60;;;1.45;;
37459;SDS011;23318;50.966;5.284;2023-07-30T12:36:15;8.02;;;1.98;;
37459;SDS011;23318;50.966;5.284;2023-07-30T12:38:41;6.68;;;1.40;;
37459;SDS011;23318;50.966;5.284;2023-07-30T12:41:07;8.00;;;2.45;;
37459;SDS011;23318;50.966;5.284;2023-07-30T12:43:32;7.50;;;1.63;;
37459;SDS011;23318;50.966;5.284;2023-07-30T12:45:58;5.97;;;1.70;;
37459;SDS011;23318;50.966;5.284;2023-07-30T12:48:23;5.38;;;1.77;;
37459;SDS011;23318;50.966;5.284;2023-07-30T12:50:49;7.13;;;1.88;;
37459;SDS011;23318;50.966;5.284;2023-07-30T12:53:15;10.95;;;2.28;;
37459;SDS011;23318;50.966;5.284;2023-07-30T12:55:41;6.50;;;1.45;;
37459;SDS011;23318;50.966;5.284;2023-07-30T12:58:06;6.38;;;1.80;;
37459;SDS011;23318;50.966;5.284;2023-07-30T13:00:33;6.28;;;1.92;;
37459;SDS011;23318;50.966;5.284;2023-07-30T13:02:59;8.90;;;1.58;;
37459;SDS011;23318;50.966;5.284;2023-07-30T13:05:25;6.30;;;1.60;;
37459;SDS011;23318;50.966;5.284;2023-07-30T13:07:51;5.53;;;1.65;;
37459;SDS011;23318;50.966;5.284;2023-07-30T13:10:16;8.23;;;1.80;;
37459;SDS011;23318;50.966;5.284;2023-07-30T13:12:42;3.88;;;1.38;;
37459;SDS011;23318;50.966;5.284;2023-07-30T13:15:08;8.00;;;1.48;;
37459;SDS011;23318;50.966;5.284;2023-07-30T13:17:33;2.97;;;1.10;;
37459;SDS011;23318;50.966;5.284;2023-07-30T13:19:59;5.78;;;1.17;;
37459;SDS011;23318;50.966;5.284;2023-07-30T13:22:25;6.25;;;0.88;;
37459;SDS011;23318;50.966;5.284;2023-07-30T13:24:51;4.72;;;1.23;;
37459;SDS011;23318;50.966;5.284;2023-07-30T13:27:17;11.93;;;1.30;;
37459;SDS011;23318;50.966;5.284;2023-07-30T13:29:43;7.40;;;1.48;;
37459;SDS011;23318;50.966;5.284;2023-07-30T13:32:09;3.67;;;1.50;;
37459;SDS011;23318;50.966;5.284;2023-07-30T13:34:35;5.95;;;1.67;;
37459;SDS011;23318;50.966;5.284;2023-07-30T13:37:00;9.23;;;1.50;;
37459;SDS011;23318;50.966;5.284;2023-07-30T13:39:27;2.67;;;1.20;;
37459;SDS011;23318;50.966;5.284;2023-07-30T13:41:52;7.32;;;1.80;;
37459;SDS011;23318;50.966;5.284;2023-07-30T13:44:19;7.38;;;1.60;;
37459;SDS011;23318;50.966;5.284;2023-07-30T13:46:45;6.93;;;1.55;;
37459;SDS011;23318;50.966;5.284;2023-07-30T13:49:10;3.95;;;1.42;;
37459;SDS011;23318;50.966;5.284;2023-07-30T13:51:36;8.45;;;1.88;;
37459;SDS011;23318;50.966;5.284;2023-07-30T13:54:02;7.03;;;1.35;;
37459;SDS011;23318;50.966;5.284;2023-07-30T13:56:28;4.82;;;1.25;;
37459;SDS011;23318;50.966;5.284;2023-07-30T13:58:54;7.45;;;1.52;;
37459;SDS011;23318;50.966;5.284;2023-07-30T14:01:20;3.97;;;1.27;;
37459;SDS011;23318;50.966;5.284;2023-07-30T14:03:46;6.13;;;1.30;;
37459;SDS011;23318;50.966;5.284;2023-07-30T14:06:12;8.18;;;1.45;;
37459;SDS011;23318;50.966;5.284;2023-07-30T14:08:38;6.88;;;1.42;;
37459;SDS011;23318;50.966;5.284;2023-07-30T14:11:04;7.40;;;1.60;;
37459;SDS011;23318;50.966;5.284;2023-07-30T14:13:30;6.35;;;1.35;;
37459;SDS011;23318;50.966;5.284;2023-07-30T14:15:55;4.55;;;1.13;;
37459;SDS011;23318;50.966;5.284;2023-07-30T14:18:22;4.43;;;1.30;;
37459;SDS011;23318;50.966;5.284;2023-07-30T14:20:48;4.18;;;1.30;;
37459;SDS011;23318;50.966;5.284;2023-07-30T14:23:14;9.02;;;1.40;;
37459;SDS011;23318;50.966;5.284;2023-07-30T14:25:39;4.85;;;1.30;;
37459;SDS011;23318;50.966;5.284;2023-07-30T14:28:05;2.67;;;1.17;;
37459;SDS011;23318;50.966;5.284;2023-07-30T14:30:31;5.25;;;1.17;;
37459;SDS011;23318;50.966;5.284;2023-07-30T14:32:56;6.38;;;1.48;;
37459;SDS011;23318;50.966;5.284;2023-07-30T14:35:22;3.97;;;1.42;;
37459;SDS011;23318;50.966;5.284;2023-07-30T14:37:48;3.30;;;1.30;;
37459;SDS011;23318;50.966;5.284;2023-07-30T14:40:14;3.33;;;1.20;;
37459;SDS011;23318;50.966;5.284;2023-07-30T14:42:40;4.32;;;1.27;;
37459;SDS011;23318;50.966;5.284;2023-07-30T14:45:06;4.05;;;1.30;;
37459;SDS011;23318;50.966;5.284;2023-07-30T14:47:32;3.80;;;1.40;;
37459;SDS011;23318;50.966;5.284;2023-07-30T14:49:58;3.05;;;1.30;;